Time;durP1;ratioP1;P1;durP2;ratioP2;P2;SDS_P1;SDS_P2;PMS_P1;PMS_P2;Temp;Humidity;BMP_temperature;BMP_pressure;BME280_temperature;BME280_humidity;BME280_pressure;Samples;Min_cycle;Max_cycle;Signal;HPM_P1;HPM_P2
2021/08/29 00:01:02;;;;;;;7.72;3.58;;;;;;;12.82;100.00;100715.44;5059844;28;20025;-82
2021/08/29 00:03:28;;;;;;;11.18;4.05;;;;;;;12.78;100.00;100719.03;5060087;28;20108;-82
2021/08/29 00:05:53;;;;;;;9.50;3.85;;;;;;;12.72;100.00;100717.41;5059503;28;20025;-82
2021/08/29 00:08:19;;;;;;;9.55;4.22;;;;;;;12.72;100.00;100720.03;5060263;28;20047;-81
2021/08/29 00:10:44;;;;;;;9.82;3.78;;;;;;;12.71;100.00;100720.88;5059909;28;20029;-81
2021/08/29 00:13:10;;;;;;;6.85;2.90;;;;;;;12.67;100.00;100722.72;5059828;28;20033;-81
2021/08/29 00:15:35;;;;;;;8.40;2.65;;;;;;;12.66;100.00;100720.16;5058982;28;20016;-81
2021/08/29 00:18:00;;;;;;;6.20;3.20;;;;;;;12.63;100.00;100718.50;5059088;28;20055;-81
2021/08/29 00:20:26;;;;;;;7.38;2.95;;;;;;;12.71;100.00;100720.03;5059267;28;20056;-81
2021/08/29 00:22:51;;;;;;;8.70;3.05;;;;;;;12.65;100.00;100718.44;5061143;28;20032;-81
2021/08/29 00:25:16;;;;;;;8.57;2.95;;;;;;;12.67;100.00;100712.31;5061263;28;20108;-81
2021/08/29 00:27:42;;;;;;;7.65;2.67;;;;;;;12.65;100.00;100711.50;5060424;28;20108;-81
2021/08/29 00:30:08;;;;;;;6.68;2.40;;;;;;;12.58;100.00;100709.94;5061041;28;20021;-81
2021/08/29 00:32:33;;;;;;;6.50;3.20;;;;;;;12.63;100.00;100710.69;5058856;28;20025;-81
2021/08/29 00:34:58;;;;;;;7.95;2.58;;;;;;;12.64;100.00;100707.19;5058727;28;20029;-81
2021/08/29 00:37:23;;;;;;;4.82;2.08;;;;;;;12.61;100.00;100707.25;5058472;28;20115;-81
2021/08/29 00:39:49;;;;;;;6.43;2.70;;;;;;;12.63;100.00;100709.84;5060419;28;20032;-81
2021/08/29 00:42:14;;;;;;;5.60;2.53;;;;;;;12.62;100.00;100706.38;5060321;28;20059;-81
2021/08/29 00:44:39;;;;;;;8.02;2.60;;;;;;;12.61;100.00;100707.25;5060229;28;20480;-82
2021/08/29 00:47:06;;;;;;;6.13;2.63;;;;;;;12.56;100.00;100706.53;5059214;28;20104;-81
2021/08/29 00:49:34;;;;;;;6.45;2.25;;;;;;;12.62;100.00;100708.09;5060221;28;20029;-81
2021/08/29 00:52:01;;;;;;;5.63;2.15;;;;;;;12.63;100.00;100708.09;5059083;28;20104;-81
2021/08/29 00:54:31;;;;;;;6.75;2.30;;;;;;;12.59;100.00;100709.06;5060936;28;20033;-82
2021/08/29 00:56:58;;;;;;;6.07;2.63;;;;;;;12.61;100.00;100699.44;5059643;28;20025;-81
2021/08/29 00:59:28;;;;;;;6.35;2.80;;;;;;;12.60;100.00;100704.72;5061170;28;20036;-82
2021/08/29 01:01:58;;;;;;;8.65;2.70;;;;;;;12.59;100.00;100693.44;5061050;28;20080;-82
2021/08/29 01:04:32;;;;;;;8.77;2.80;;;;;;;12.59;100.00;100696.06;5061452;28;20028;-82
2021/08/29 01:07:04;;;;;;;6.53;2.90;;;;;;;12.61;100.00;100686.44;5058991;28;20469;-81
2021/08/29 01:09:30;;;;;;;6.63;2.90;;;;;;;12.61;100.00;100690.78;5080890;22;20116;-87
2021/08/29 01:11:56;;;;;;;6.60;2.72;;;;;;;12.59;100.00;100692.56;5054687;28;20484;-87
2021/08/29 01:14:24;;;;;;;8.27;2.30;;;;;;;12.57;100.00;100686.56;5055947;28;20035;-87
2021/08/29 01:16:52;;;;;;;14.02;3.67;;;;;;;12.57;100.00;100690.03;5054613;28;20017;-87
2021/08/29 01:19:18;;;;;;;7.38;2.42;;;;;;;12.57;100.00;100687.41;5055393;28;20025;-87
2021/08/29 01:21:47;;;;;;;7.63;2.65;;;;;;;12.58;100.00;100680.47;5054762;28;20036;-87
2021/08/29 01:24:16;;;;;;;6.20;2.55;;;;;;;12.57;100.00;100683.97;5054834;28;20020;-87
2021/08/29 01:26:53;;;;;;;14.35;2.92;;;;;;;12.57;100.00;100686.56;5055423;28;20028;-87
2021/08/29 01:29:24;;;;;;;6.70;2.72;;;;;;;12.62;100.00;100688.16;5055801;28;20021;-87
2021/08/29 01:31:50;;;;;;;8.77;3.05;;;;;;;12.61;100.00;100680.38;5054364;28;20557;-87
2021/08/29 01:34:17;;;;;;;9.23;2.50;;;;;;;12.53;100.00;100683.19;5054563;28;20143;-87
2021/08/29 01:36:44;;;;;;;6.75;3.22;;;;;;;12.59;100.00;100677.84;5054415;28;20076;-87
2021/08/29 01:39:10;;;;;;;8.93;2.70;;;;;;;12.59;100.00;100682.16;5054330;28;20116;-87
2021/08/29 01:41:38;;;;;;;6.32;2.85;;;;;;;12.55;100.00;100681.38;5054002;28;20122;-86
2021/08/29 01:44:05;;;;;;;8.02;2.88;;;;;;;12.56;100.00;100683.13;5054276;28;20024;-86
2021/08/29 01:46:32;;;;;;;7.20;2.92;;;;;;;12.54;100.00;100677.09;5054876;28;20021;-87
2021/08/29 01:48:58;;;;;;;7.13;3.10;;;;;;;12.57;100.00;100683.97;5053879;28;20036;-86
2021/08/29 01:51:24;;;;;;;6.22;3.10;;;;;;;12.56;100.00;100680.50;5053783;28;20386;-86
2021/08/29 01:53:49;;;;;;;9.52;3.10;;;;;;;12.56;100.00;100679.63;5053714;28;20024;-86
2021/08/29 01:56:14;;;;;;;8.15;2.92;;;;;;;12.56;100.00;100680.50;5053280;28;20025;-86
2021/08/29 01:58:40;;;;;;;8.75;2.83;;;;;;;12.56;100.00;100683.13;5053244;28;20021;-86
2021/08/29 02:01:09;;;;;;;11.20;2.80;;;;;;;12.56;100.00;100679.63;5054727;28;20498;-86
2021/08/29 02:03:35;;;;;;;6.60;2.78;;;;;;;12.47;100.00;100677.25;5053174;28;20131;-86
2021/08/29 02:06:10;;;;;;;8.88;3.42;;;;;;;12.52;100.00;100676.25;5053200;28;20529;-86
2021/08/29 02:08:38;;;;;;;8.38;4.07;;;;;;;12.55;100.00;100678.78;5053953;28;20124;-86
2021/08/29 02:11:05;;;;;;;9.02;3.00;;;;;;;12.55;100.00;100681.38;5052397;28;20021;-86
2021/08/29 02:13:34;;;;;;;9.25;3.00;;;;;;;12.54;100.00;100674.47;5052997;28;20131;-86
2021/08/29 02:16:08;;;;;;;7.43;3.38;;;;;;;12.48;100.00;100674.63;5052980;28;20480;-86
2021/08/29 02:18:35;;;;;;;8.13;3.35;;;;;;;12.48;100.00;100676.38;5052874;28;20070;-86
2021/08/29 02:21:01;;;;;;;6.63;3.00;;;;;;;12.54;100.00;100676.22;5052755;28;20029;-86
2021/08/29 02:23:29;;;;;;;8.07;2.83;;;;;;;12.49;100.00;100675.47;5054273;28;20033;-86
2021/08/29 02:25:54;;;;;;;7.65;3.10;;;;;;;12.49;100.00;100676.34;5054031;28;20028;-86
2021/08/29 02:28:20;;;;;;;7.22;3.20;;;;;;;12.47;100.00;100672.06;5053712;28;20029;-86
2021/08/29 02:30:45;;;;;;;6.60;3.25;;;;;;;12.48;100.00;100671.19;5052655;28;20473;-86
2021/08/29 02:33:10;;;;;;;8.38;2.92;;;;;;;12.47;100.00;100672.06;5053117;28;20020;-86
2021/08/29 02:35:38;;;;;;;7.43;3.00;;;;;;;12.45;100.00;100669.50;5052645;28;20439;-86
2021/08/29 02:38:04;;;;;;;8.18;3.28;;;;;;;12.47;100.00;100662.53;5053800;28;20024;-86
2021/08/29 02:40:36;;;;;;;7.28;3.20;;;;;;;12.47;100.00;100667.72;5053744;28;20029;-86
2021/08/29 02:43:02;;;;;;;8.25;2.95;;;;;;;12.46;100.00;100671.19;5052528;28;20028;-86
2021/08/29 02:45:28;;;;;;;8.23;3.33;;;;;;;12.45;100.00;100664.31;5052296;28;20029;-87
2021/08/29 02:47:53;;;;;;;8.73;3.00;;;;;;;12.49;100.00;100660.72;5052124;28;20021;-87
2021/08/29 02:50:20;;;;;;;10.82;3.55;;;;;;;12.48;100.00;100659.03;5052326;28;20039;-87
2021/08/29 02:52:46;;;;;;;5.72;3.10;;;;;;;12.49;100.00;100655.50;5052383;28;20025;-87
2021/08/29 02:55:14;;;;;;;9.60;3.35;;;;;;;12.50;100.00;100659.84;5053545;28;20365;-87
2021/08/29 02:57:40;;;;;;;7.15;3.08;;;;;;;12.51;100.00;100655.50;5052355;28;20457;-87
2021/08/29 03:00:08;;;;;;;8.35;3.28;;;;;;;12.43;100.00;100653.06;5052044;28;20035;-86
2021/08/29 03:02:34;;;;;;;5.82;3.17;;;;;;;12.45;100.00;100656.50;5052192;28;20070;-86
2021/08/29 03:04:59;;;;;;;7.55;3.42;;;;;;;12.46;100.00;100657.34;5052081;28;20021;-86
2021/08/29 03:07:25;;;;;;;5.95;3.00;;;;;;;12.49;100.00;100655.50;5053248;28;20445;-86
2021/08/29 03:09:50;;;;;;;8.25;3.13;;;;;;;12.45;100.00;100656.50;5051837;28;20032;-86
2021/08/29 03:12:16;;;;;;;6.03;3.05;;;;;;;12.50;100.00;100657.25;5053200;28;20029;-86
2021/08/29 03:14:41;;;;;;;7.68;3.17;;;;;;;12.44;100.00;100650.44;5053202;28;20032;-86
2021/08/29 03:17:07;;;;;;;7.30;3.20;;;;;;;12.50;100.00;100649.44;5053187;28;20025;-86
2021/08/29 03:19:35;;;;;;;6.93;2.70;;;;;;;12.49;100.00;100641.66;5053171;28;20388;-86
2021/08/29 03:22:03;;;;;;;6.20;2.50;;;;;;;12.42;100.00;100643.56;5052825;28;20029;-86
2021/08/29 03:24:29;;;;;;;7.00;2.75;;;;;;;12.46;100.00;100632.19;5051853;28;20497;-86
2021/08/29 03:26:54;;;;;;;6.30;2.90;;;;;;;12.43;100.00;100645.25;5051821;28;20021;-86
2021/08/29 03:29:20;;;;;;;7.95;2.90;;;;;;;12.46;100.00;100645.19;5051803;28;20366;-86
2021/08/29 03:31:45;;;;;;;6.53;2.58;;;;;;;12.44;100.00;100641.78;5053395;28;20021;-86
2021/08/29 03:34:13;;;;;;;5.82;2.72;;;;;;;12.43;100.00;100635.72;5051793;28;20400;-86
2021/08/29 03:36:41;;;;;;;4.97;2.45;;;;;;;12.43;100.00;100640.91;5051833;28;20108;-86
2021/08/29 03:39:07;;;;;;;5.43;2.45;;;;;;;12.45;100.00;100640.88;5051629;28;20025;-86
2021/08/29 03:41:34;;;;;;;5.32;2.40;;;;;;;12.47;100.00;100633.91;5051743;28;20108;-86
2021/08/29 03:44:00;;;;;;;7.18;2.55;;;;;;;12.46;100.00;100631.34;5051884;28;20024;-86
2021/08/29 03:46:25;;;;;;;7.40;2.30;;;;;;;12.44;100.00;100642.63;5052861;28;20024;-86
2021/08/29 03:48:51;;;;;;;8.10;2.17;;;;;;;12.47;100.00;100628.72;5051637;28;20370;-86
2021/08/29 03:51:16;;;;;;;5.68;2.38;;;;;;;12.47;100.00;100633.91;5051652;28;20116;-86
2021/08/29 03:53:43;;;;;;;4.78;2.13;;;;;;;12.47;100.00;100633.03;5051641;28;20021;-86
2021/08/29 03:56:10;;;;;;;5.50;2.50;;;;;;;12.47;100.00;100620.91;5051615;28;20397;-86
2021/08/29 03:58:42;;;;;;;7.00;2.53;;;;;;;12.47;100.00;100627.81;5051581;28;20025;-86
2021/08/29 04:01:08;;;;;;;7.07;2.17;;;;;;;12.46;100.00;100628.72;5052906;28;20441;-86
2021/08/29 04:03:33;;;;;;;5.38;2.35;;;;;;;12.48;100.00;100629.56;5052850;28;20103;-86
2021/08/29 04:06:03;;;;;;;5.88;2.28;;;;;;;12.49;100.00;100624.31;5051616;28;20116;-86
2021/08/29 04:08:34;;;;;;;7.80;2.38;;;;;;;12.44;100.00;100628.78;5051325;28;20033;-86
2021/08/29 04:11:00;;;;;;;10.48;2.65;;;;;;;12.43;100.00;100632.25;5052756;28;20052;-86
2021/08/29 04:13:30;;;;;;;7.25;2.30;;;;;;;12.40;100.00;100640.13;5051389;28;20021;-86
2021/08/29 04:15:55;;;;;;;5.03;2.50;;;;;;;12.42;100.00;100628.81;5051470;28;20025;-86
2021/08/29 04:18:22;;;;;;;5.13;2.22;;;;;;;12.41;100.00;100634.06;5052798;28;20071;-85
2021/08/29 04:20:47;;;;;;;6.38;2.55;;;;;;;12.41;100.00;100631.47;5052656;28;20416;-86
2021/08/29 04:23:13;;;;;;;5.80;2.15;;;;;;;12.40;100.00;100634.94;5052834;28;20024;-86
2021/08/29 04:25:39;;;;;;;6.30;2.22;;;;;;;12.39;100.00;100633.22;5051408;28;20108;-86
2021/08/29 04:28:05;;;;;;;6.35;2.60;;;;;;;12.40;100.00;100625.38;5051214;28;20192;-86
2021/08/29 04:30:30;;;;;;;7.72;2.70;;;;;;;12.43;100.00;100627.06;5051917;28;20052;-86
2021/08/29 04:32:56;;;;;;;8.68;2.88;;;;;;;12.42;100.00;100626.19;5052398;28;20116;-86
2021/08/29 04:35:21;;;;;;;7.03;2.78;;;;;;;12.44;100.00;100629.63;5056282;28;20021;-86
2021/08/29 04:37:46;;;;;;;6.20;2.88;;;;;;;12.43;100.00;100629.66;5057099;28;20088;-86
2021/08/29 04:40:12;;;;;;;7.47;2.45;;;;;;;12.45;100.00;100643.50;5055205;28;20025;-86
2021/08/29 04:42:37;;;;;;;6.75;2.75;;;;;;;12.45;100.00;100633.09;5056391;28;20036;-86
2021/08/29 04:45:03;;;;;;;12.38;3.10;;;;;;;12.42;100.00;100630.56;5055084;28;20075;-86
2021/08/29 04:47:28;;;;;;;7.60;2.72;;;;;;;12.43;100.00;100640.06;5056069;28;20057;-86
2021/08/29 04:49:53;;;;;;;10.90;2.92;;;;;;;12.46;100.00;100644.34;5054841;28;20446;-86
2021/08/29 04:52:19;;;;;;;10.48;3.15;;;;;;;12.43;100.00;100640.06;5055646;28;20021;-86
2021/08/29 04:54:44;;;;;;;10.63;3.10;;;;;;;12.45;100.00;100640.88;5055135;28;20032;-86
2021/08/29 04:57:09;;;;;;;13.90;3.20;;;;;;;12.43;100.00;100643.50;5054616;28;20025;-87
2021/08/29 04:59:34;;;;;;;5.63;2.60;;;;;;;12.48;100.00;100638.22;5054354;28;20060;-86
2021/08/29 05:01:59;;;;;;;8.18;2.90;;;;;;;12.46;100.00;100634.78;5054373;28;20029;-86
2021/08/29 05:04:25;;;;;;;8.10;2.78;;;;;;;12.47;100.00;100646.91;5054273;28;20061;-86
2021/08/29 05:06:50;;;;;;;7.35;2.70;;;;;;;12.49;100.00;100649.47;5054172;28;20523;-86
2021/08/29 05:09:15;;;;;;;7.25;2.88;;;;;;;12.47;100.00;100638.22;5054030;28;20028;-86
2021/08/29 05:11:41;;;;;;;7.18;2.90;;;;;;;12.49;100.00;100639.91;5055399;28;20056;-86
2021/08/29 05:14:06;;;;;;;7.05;2.80;;;;;;;12.53;100.00;100643.28;5055398;28;20037;-86
2021/08/29 05:16:31;;;;;;;6.65;3.20;;;;;;;12.49;100.00;100645.09;5054051;28;20373;-86
2021/08/29 05:18:56;;;;;;;8.95;3.08;;;;;;;12.48;100.00;100638.22;5053945;28;20028;-85
2021/08/29 05:21:22;;;;;;;10.52;3.05;;;;;;;12.52;100.00;100632.03;5054009;28;20025;-86
2021/08/29 05:23:47;;;;;;;9.55;2.78;;;;;;;12.52;100.00;100639.84;5055142;28;20024;-86
2021/08/29 05:26:12;;;;;;;12.10;3.10;;;;;;;12.55;100.00;100637.16;5055697;28;20056;-87
2021/08/29 05:28:38;;;;;;;8.13;2.50;;;;;;;12.55;100.00;100634.56;5053679;28;20032;-86
2021/08/29 05:31:03;;;;;;;11.05;2.72;;;;;;;12.56;100.00;100635.41;5053729;28;20029;-86
2021/08/29 05:33:28;;;;;;;8.30;2.58;;;;;;;12.58;100.00;100638.81;5053693;28;20025;-87
2021/08/29 05:35:54;;;;;;;12.15;3.00;;;;;;;12.61;100.00;100634.41;5053738;28;20542;-86
2021/08/29 05:38:19;;;;;;;8.15;2.85;;;;;;;12.61;100.00;100646.56;5054851;28;20024;-86
2021/08/29 05:40:44;;;;;;;8.55;2.97;;;;;;;12.58;100.00;100647.47;5053698;28;20025;-86
2021/08/29 05:43:10;;;;;;;8.55;2.70;;;;;;;12.55;100.00;100644.09;5053186;28;20032;-87
2021/08/29 05:45:35;;;;;;;5.28;2.38;;;;;;;12.60;100.00;100639.66;5053474;28;20028;-86
2021/08/29 05:48:00;;;;;;;15.50;3.13;;;;;;;12.60;100.00;100640.50;5053244;28;20021;-86
2021/08/29 05:50:25;;;;;;;9.48;2.80;;;;;;;12.59;100.00;100650.94;5054659;28;20029;-86
2021/08/29 05:52:51;;;;;;;6.13;2.90;;;;;;;12.63;100.00;100650.00;5053342;28;20033;-86
2021/08/29 05:55:16;;;;;;;12.15;2.75;;;;;;;12.64;100.00;100642.13;5053241;28;20059;-86
2021/08/29 05:57:41;;;;;;;12.73;3.03;;;;;;;12.64;100.00;100644.72;5053266;28;20362;-86
2021/08/29 06:00:07;;;;;;;10.23;3.13;;;;;;;12.64;100.00;100636.91;5053175;28;20029;-86
2021/08/29 06:02:32;;;;;;;8.05;2.88;;;;;;;12.70;100.00;100637.66;5053097;28;20024;-86
2021/08/29 06:05:00;;;;;;;5.57;2.70;;;;;;;12.76;100.00;100642.72;5053234;28;20029;-86
2021/08/29 06:07:25;;;;;;;14.63;2.95;;;;;;;12.76;100.00;100640.13;5054193;28;20028;-86
2021/08/29 06:09:50;;;;;;;8.45;2.42;;;;;;;12.74;100.00;100645.34;5054173;28;20500;-86
2021/08/29 06:12:15;;;;;;;7.63;2.70;;;;;;;12.77;100.00;100639.22;5052883;28;20079;-86
2021/08/29 06:14:41;;;;;;;11.95;3.05;;;;;;;12.80;100.00;100649.53;5052897;28;20453;-87
2021/08/29 06:17:06;;;;;;;8.13;2.88;;;;;;;12.81;100.00;100635.66;5052910;28;20025;-87
2021/08/29 06:19:31;;;;;;;9.73;2.90;;;;;;;12.86;100.00;100641.56;5052696;28;20025;-87
2021/08/29 06:21:57;;;;;;;6.10;2.67;;;;;;;12.93;100.00;100645.75;5052927;28;20121;-86
2021/08/29 06:24:22;;;;;;;7.55;2.63;;;;;;;12.90;100.00;100641.47;5054020;28;20499;-86
2021/08/29 06:26:47;;;;;;;7.45;2.40;;;;;;;12.91;100.00;100639.72;5052638;28;20048;-86
2021/08/29 06:29:14;;;;;;;9.25;2.45;;;;;;;12.99;100.00;100636.88;5054016;28;20068;-86
2021/08/29 06:31:39;;;;;;;5.60;2.47;;;;;;;13.00;100.00;100638.63;5053892;28;20047;-86
2021/08/29 06:34:04;;;;;;;5.75;2.60;;;;;;;13.03;100.00;100639.38;5052679;28;20481;-87
2021/08/29 06:36:29;;;;;;;6.25;2.20;;;;;;;13.06;100.00;100641.06;5052495;28;20118;-85
2021/08/29 06:38:57;;;;;;;9.65;2.25;;;;;;;13.21;100.00;100637.16;5052608;28;20472;-86
2021/08/29 06:41:23;;;;;;;7.22;2.35;;;;;;;13.17;100.00;100632.94;5052507;28;20370;-87
2021/08/29 06:43:48;;;;;;;6.05;2.25;;;;;;;13.13;100.00;100633.03;5053715;28;20032;-88
2021/08/29 06:46:14;;;;;;;4.35;1.83;;;;;;;13.12;100.00;100636.53;5052804;28;20108;-87
2021/08/29 06:48:39;;;;;;;5.75;2.40;;;;;;;13.20;100.00;100641.50;5052637;28;20024;-85
2021/08/29 06:51:04;;;;;;;5.70;2.40;;;;;;;13.13;100.00;100633.03;5053648;28;20048;-86
2021/08/29 06:53:29;;;;;;;6.43;2.85;;;;;;;13.27;100.00;100637.00;5052822;28;20024;-86
2021/08/29 06:55:55;;;;;;;5.15;2.22;;;;;;;13.24;100.00;100631.84;5051616;28;20468;-86
2021/08/29 06:58:20;;;;;;;5.65;2.63;;;;;;;13.25;100.00;100631.88;5052577;28;20023;-86
2021/08/29 07:00:45;;;;;;;5.10;2.38;;;;;;;13.29;100.00;100636.09;5052236;28;20032;-86
2021/08/29 07:03:10;;;;;;;5.82;2.40;;;;;;;13.36;100.00;100636.75;5052217;28;20021;-86
2021/08/29 07:05:36;;;;;;;5.25;2.13;;;;;;;13.35;100.00;100633.31;5052124;28;20025;-86
2021/08/29 07:08:01;;;;;;;6.18;2.30;;;;;;;13.38;100.00;100632.38;5053749;28;20033;-86
2021/08/29 07:10:26;;;;;;;6.35;2.00;;;;;;;13.32;100.00;100637.75;5064569;22;20041;-83
2021/08/29 07:12:52;;;;;;;5.80;2.30;;;;;;;13.45;100.00;100644.31;5036875;28;20120;-83
2021/08/29 07:15:17;;;;;;;4.38;1.85;;;;;;;13.41;100.00;100631.44;5038444;28;20466;-83
2021/08/29 07:17:42;;;;;;;5.82;1.88;;;;;;;13.45;100.00;100628.69;5038426;28;20033;-83
2021/08/29 07:20:08;;;;;;;4.85;2.08;;;;;;;13.44;100.00;100623.53;5036810;28;20033;-83
2021/08/29 07:22:33;;;;;;;4.95;1.90;;;;;;;13.57;100.00;100630.06;5035898;28;20565;-83
2021/08/29 07:24:59;;;;;;;6.45;1.83;;;;;;;13.51;100.00;100632.84;5035803;28;20029;-83
2021/08/29 07:27:24;;;;;;;4.75;2.13;;;;;;;13.66;100.00;100628.94;5036963;28;20028;-83
2021/08/29 07:29:49;;;;;;;7.50;2.20;;;;;;;13.76;100.00;100627.75;5036969;28;20037;-83
2021/08/29 07:32:14;;;;;;;4.75;1.80;;;;;;;13.66;100.00;100637.63;5036418;28;20397;-83
2021/08/29 07:34:41;;;;;;;6.15;1.80;;;;;;;13.79;100.00;100627.69;5036225;28;20032;-83
2021/08/29 07:37:07;;;;;;;4.90;1.85;;;;;;;13.79;100.00;100632.88;5035987;28;20021;-83
2021/08/29 07:39:32;;;;;;;4.63;2.08;;;;;;;13.92;100.00;100618.59;5034077;28;20140;-83
2021/08/29 07:41:57;;;;;;;7.90;4.15;;;;;;;13.86;100.00;100626.59;5037269;28;20494;-83
2021/08/29 07:44:23;;;;;;;4.95;2.03;;;;;;;13.89;100.00;100631.72;5037642;28;20037;-83
2021/08/29 07:46:48;;;;;;;3.80;1.80;;;;;;;13.88;100.00;100632.59;5037029;28;20030;-82
2021/08/29 07:49:13;;;;;;;5.43;2.00;;;;;;;13.93;100.00;100641.16;5035460;28;20124;-82
2021/08/29 07:51:38;;;;;;;5.10;2.40;;;;;;;14.16;100.00;100645.66;5036562;28;20036;-82
2021/08/29 07:54:04;;;;;;;5.55;1.83;;;;;;;14.28;100.00;100641.78;5035730;28;20439;-82
2021/08/29 07:56:29;;;;;;;5.05;2.00;;;;;;;14.12;100.00;100640.59;5038544;28;20021;-82
2021/08/29 07:58:54;;;;;;;4.25;1.65;;;;;;;14.24;100.00;100640.19;5036945;28;20548;-83
2021/08/29 08:01:19;;;;;;;3.95;1.73;;;;;;;14.24;100.00;100640.19;5035449;28;20032;-82
2021/08/29 08:03:45;;;;;;;4.20;1.88;;;;;;;14.15;100.00;100645.69;5033701;28;20504;-83
2021/08/29 08:06:10;;;;;;;3.55;1.70;;;;;;;14.21;100.00;100645.50;5034638;28;20026;-83
2021/08/29 08:08:35;;;;;;;5.05;2.08;;;;;;;14.29;100.00;100643.53;5038107;28;20075;-82
2021/08/29 08:11:00;;;;;;;9.93;3.60;;;;;;;14.41;100.00;100650.94;5038468;28;20467;-83
2021/08/29 08:13:26;;;;;;;6.78;4.68;;;;;;;14.40;100.00;100657.06;5039191;28;20030;-83
2021/08/29 08:15:51;;;;;;;4.65;2.35;;;;;;;14.38;100.00;100656.28;5040284;28;20105;-83
2021/08/29 08:18:17;;;;;;;5.80;2.15;;;;;;;14.37;100.00;100653.69;5039131;28;20051;-82
2021/08/29 08:20:42;;;;;;;4.10;1.92;;;;;;;14.37;100.00;100651.94;5039011;28;20052;-82
2021/08/29 08:23:08;;;;;;;4.90;2.38;;;;;;;14.44;100.00;100652.59;5039191;28;20431;-82
2021/08/29 08:25:33;;;;;;;5.55;2.33;;;;;;;14.35;100.00;100653.75;5039553;28;20358;-82
2021/08/29 08:28:14;;;;;;;7.00;2.30;;;;;;;14.37;100.00;100644.09;5042830;28;20032;-83
2021/08/29 08:30:40;;;;;;;5.18;2.70;;;;;;;14.41;100.00;100653.56;5039110;28;20146;-82
2021/08/29 08:33:05;;;;;;;5.35;2.00;;;;;;;14.52;100.00;100645.41;5040614;28;20021;-82
2021/08/29 08:35:30;;;;;;;5.82;2.50;;;;;;;14.68;100.00;100640.50;5038360;28;20025;-82
2021/08/29 08:37:56;;;;;;;10.38;4.85;;;;;;;14.83;100.00;100645.22;5040200;28;20097;-82
2021/08/29 08:40:22;;;;;;;15.60;9.43;;;;;;;14.85;100.00;100640.78;5039628;28;20473;-82
2021/08/29 08:42:47;;;;;;;7.57;4.28;;;;;;;14.79;100.00;100642.78;5040236;28;20025;-82
2021/08/29 08:45:13;;;;;;;5.88;2.60;;;;;;;14.81;100.00;100638.31;5038399;28;20132;-82
2021/08/29 08:47:42;;;;;;;5.40;2.63;;;;;;;14.90;100.00;100641.50;5040247;28;20026;-82
2021/08/29 08:50:09;;;;;;;8.82;2.90;;;;;;;14.87;100.00;100645.94;5041026;28;20036;-82
2021/08/29 08:52:36;;;;;;;7.97;2.10;;;;;;;14.57;100.00;100640.03;5039934;28;20022;-82
2021/08/29 08:55:03;;;;;;;4.70;2.55;;;;;;;14.70;100.00;100650.00;5040886;28;20071;-82
2021/08/29 08:57:29;;;;;;;5.75;2.50;;;;;;;14.78;100.00;100649.75;5039215;28;20175;-82
2021/08/29 08:59:54;;;;;;;6.60;3.03;;;;;;;15.02;100.00;100649.78;5039062;28;20021;-82
2021/08/29 09:02:21;;;;;;;4.70;2.63;;;;;;;15.04;100.00;100653.22;5038847;28;20033;-81
2021/08/29 09:04:47;;;;;;;7.88;3.90;;;;;;;15.03;100.00;100654.97;5039444;28;20025;-81
2021/08/29 09:07:13;;;;;;;7.07;3.35;;;;;;;15.23;100.00;100656.88;5039180;28;20116;-82
2021/08/29 09:09:39;;;;;;;5.78;3.13;;;;;;;15.15;100.00;100653.69;5038968;28;20063;-82
2021/08/29 09:12:04;;;;;;;7.20;4.07;;;;;;;15.24;100.00;100648.16;5039087;28;20025;-82
2021/08/29 09:14:47;;;;;;;6.22;3.40;;;;;;;15.27;100.00;100649.75;5039906;28;20075;-82
2021/08/29 09:17:25;;;;;;;5.78;2.97;;;;;;;15.15;100.00;100657.16;5038496;28;20025;-82
2021/08/29 09:20:11;;;;;;;4.60;2.38;;;;;;;15.19;100.00;100657.91;5037496;28;20052;-82
2021/08/29 09:22:39;;;;;;;5.53;2.20;;;;;;;14.93;100.00;100658.78;5038645;28;20112;-82
2021/08/29 09:25:05;;;;;;;5.88;2.30;;;;;;;14.93;100.00;100651.84;5038088;28;20026;-81
2021/08/29 09:27:30;;;;;;;5.78;2.38;;;;;;;15.03;100.00;100657.59;5038476;28;20044;-82
2021/08/29 09:29:56;;;;;;;5.30;2.60;;;;;;;15.15;100.00;100662.38;5038837;28;20088;-82
2021/08/29 09:32:21;;;;;;;5.45;2.90;;;;;;;15.03;100.00;100665.44;5039328;28;20044;-81
2021/08/29 09:34:57;;;;;;;4.13;2.03;;;;;;;14.98;100.00;100669.09;5035831;28;20479;-82
2021/08/29 09:37:23;;;;;;;8.48;4.63;;;;;;;15.11;100.00;100666.00;5035753;28;20079;-83
2021/08/29 09:39:48;;;;;;;6.47;3.30;;;;;;;15.20;100.00;100667.44;5035511;28;20025;-82
2021/08/29 09:42:13;;;;;;;4.93;2.25;;;;;;;15.51;100.00;100663.72;5035356;28;20053;-82
2021/08/29 09:44:39;;;;;;;4.75;2.60;;;;;;;15.69;100.00;100670.91;5034371;28;20113;-81
2021/08/29 09:47:06;;;;;;;4.47;2.30;;;;;;;15.68;100.00;100666.59;5035413;28;20435;-81
2021/08/29 09:49:34;;;;;;;5.82;3.03;;;;;;;15.70;100.00;100670.00;5034607;28;20075;-81
2021/08/29 09:52:01;;;;;;;8.30;4.18;;;;;;;15.57;100.00;100666.94;5036100;28;20029;-81
2021/08/29 09:54:43;;;;;;;9.95;6.82;;;;;;;15.58;100.00;100668.66;5035034;28;20504;-81
2021/08/29 09:57:10;;;;;;;5.47;2.92;;;;;;;15.46;100.00;100666.50;5036047;28;20052;-81
2021/08/29 09:59:38;;;;;;;5.80;3.00;;;;;;;15.49;100.00;100663.78;5034616;28;20022;-82
2021/08/29 10:02:03;;;;;;;5.22;2.85;;;;;;;15.59;100.00;100674.75;5034839;28;20122;-81
2021/08/29 10:04:29;;;;;;;8.85;5.97;;;;;;;15.71;100.00;100670.84;5035209;28;20501;-82
2021/08/29 10:06:54;;;;;;;10.07;6.22;;;;;;;15.72;100.00;100680.41;5038831;28;20036;-82
2021/08/29 10:09:25;;;;;;;7.30;4.85;;;;;;;15.65;100.00;100671.91;5037666;28;20029;-82
2021/08/29 10:11:50;;;;;;;6.63;3.22;;;;;;;15.61;100.00;100665.09;5037917;28;20048;-82
2021/08/29 10:14:16;;;;;;;6.25;1.90;;;;;;;15.64;100.00;100662.38;5034779;28;20029;-82
2021/08/29 10:16:42;;;;;;;5.03;2.40;;;;;;;15.88;100.00;100663.19;5035760;28;20018;-81
2021/08/29 10:19:10;;;;;;;14.27;8.60;;;;;;;16.02;100.00;100654.84;5034647;28;20056;-81
2021/08/29 10:21:36;;;;;;;11.57;7.00;;;;;;;15.88;100.00;100656.19;5035815;28;20036;-81
2021/08/29 10:24:05;;;;;;;4.15;1.88;;;;;;;15.85;100.00;100658.09;5035918;28;20032;-81
2021/08/29 10:26:31;;;;;;;4.55;2.08;;;;;;;15.69;100.00;100655.22;5035046;28;20120;-82
2021/08/29 10:29:11;;;;;;;4.05;1.50;;;;;;;15.54;100.00;100656.59;5035433;28;20026;-81
2021/08/29 10:31:53;;;;;;;2.55;1.20;;;;;;;15.61;100.00;100662.47;5036727;28;20362;-81
2021/08/29 10:34:19;;;;;;;2.90;1.08;;;;;;;15.75;100.00;100662.81;5036888;28;20037;-81
2021/08/29 10:36:45;;;;;;;2.90;1.23;;;;;;;16.06;100.00;100659.88;5035088;28;20024;-81
2021/08/29 10:39:10;;;;;;;2.75;0.70;;;;;;;15.81;100.00;100657.34;5035589;28;20037;-82
2021/08/29 10:41:36;;;;;;;2.65;0.98;;;;;;;15.77;100.00;100660.16;5035835;28;20105;-82
2021/08/29 10:44:01;;;;;;;2.97;1.25;;;;;;;16.29;100.00;100658.13;5035879;28;20083;-82
2021/08/29 10:46:27;;;;;;;4.68;1.23;;;;;;;16.25;100.00;100657.38;5035928;28;20022;-82
2021/08/29 10:48:54;;;;;;;2.60;1.13;;;;;;;16.34;100.00;100661.38;5034472;28;20048;-82
2021/08/29 10:51:24;;;;;;;3.90;1.30;;;;;;;16.28;100.00;100662.47;5034720;28;20029;-82
2021/08/29 10:53:52;;;;;;;3.20;1.38;;;;;;;16.31;100.00;100662.34;5035702;28;20032;-82
2021/08/29 10:56:17;;;;;;;3.40;1.20;;;;;;;16.08;100.00;100665.06;5036011;28;20029;-82
2021/08/29 10:58:43;;;;;;;3.60;1.23;;;;;;;15.83;100.00;100663.41;5035759;28;20103;-81
2021/08/29 11:01:43;;;;;;;3.45;1.30;;;;;;;15.70;100.00;100661.28;5035198;28;20064;-82
2021/08/29 11:04:17;;;;;;;4.63;1.92;;;;;;;15.78;100.00;100667.94;5034309;28;20025;-82
2021/08/29 11:06:46;;;;;;;;;;;;;;;15.80;100.00;100671.34;5035744;28;20438;-82
2021/08/29 11:09:40;;;;;;;6.88;1.77;;;;;;;15.67;100.00;100677.97;5035959;28;20376;-82
2021/08/29 11:12:15;;;;;;;6.68;2.60;;;;;;;15.75;100.00;100675.91;5035056;28;20444;-82
2021/08/29 11:14:51;;;;;;;5.15;2.00;;;;;;;15.76;100.00;100682.81;5034460;28;20084;-82